sensor_id;sensor_type;location;lat;lon;timestamp;P1;durP1;ratioP1;P2;durP2;ratioP2
48574;SDS011;34352;51.084;3.712;2023-08-30T00:01:46;4.60;;;2.95;;
48574;SDS011;34352;51.084;3.712;2023-08-30T00:04:19;6.20;;;3.22;;
48574;SDS011;34352;51.084;3.712;2023-08-30T00:06:48;4.82;;;3.20;;
48574;SDS011;34352;51.084;3.712;2023-08-30T00:09:19;4.38;;;2.75;;
48574;SDS011;34352;51.084;3.712;2023-08-30T00:14:20;6.22;;;3.10;;
48574;SDS011;34352;51.084;3.712;2023-08-30T00:16:46;4.93;;;3.00;;
48574;SDS011;34352;51.084;3.712;2023-08-30T00:19:12;5.88;;;3.13;;
48574;SDS011;34352;51.084;3.712;2023-08-30T00:24:15;6.93;;;3.58;;
48574;SDS011;34352;51.084;3.712;2023-08-30T00:26:41;4.72;;;2.70;;
48574;SDS011;34352;51.084;3.712;2023-08-30T00:29:06;5.72;;;2.90;;
48574;SDS011;34352;51.084;3.712;2023-08-30T00:31:38;6.53;;;3.25;;
48574;SDS011;34352;51.084;3.712;2023-08-30T00:34:05;6.93;;;3.13;;
48574;SDS011;34352;51.084;3.712;2023-08-30T00:36:36;6.10;;;3.42;;
48574;SDS011;34352;51.084;3.712;2023-08-30T00:39:02;8.65;;;3.35;;
48574;SDS011;34352;51.084;3.712;2023-08-30T00:41:30;5.88;;;3.90;;
48574;SDS011;34352;51.084;3.712;2023-08-30T00:43:55;5.80;;;2.67;;
48574;SDS011;34352;51.084;3.712;2023-08-30T00:46:28;7.10;;;3.53;;
48574;SDS011;34352;51.084;3.712;2023-08-30T00:48:55;6.45;;;3.20;;
48574;SDS011;34352;51.084;3.712;2023-08-30T00:51:21;5.85;;;3.45;;
48574;SDS011;34352;51.084;3.712;2023-08-30T00:53:48;3.28;;;2.63;;
48574;SDS011;34352;51.084;3.712;2023-08-30T00:56:16;6.32;;;3.25;;
48574;SDS011;34352;51.084;3.712;2023-08-30T00:58:44;9.35;;;3.90;;
48574;SDS011;34352;51.084;3.712;2023-08-30T01:01:12;4.95;;;3.15;;
48574;SDS011;34352;51.084;3.712;2023-08-30T01:03:45;6.00;;;3.20;;
48574;SDS011;34352;51.084;3.712;2023-08-30T01:06:11;6.72;;;3.35;;
48574;SDS011;34352;51.084;3.712;2023-08-30T01:08:41;4.72;;;3.05;;
48574;SDS011;34352;51.084;3.712;2023-08-30T01:14:00;4.60;;;2.80;;
48574;SDS011;34352;51.084;3.712;2023-08-30T01:16:34;5.05;;;3.30;;
48574;SDS011;34352;51.084;3.712;2023-08-30T01:19:02;5.70;;;2.85;;
48574;SDS011;34352;51.084;3.712;2023-08-30T01:21:46;7.40;;;3.65;;
48574;SDS011;34352;51.084;3.712;2023-08-30T01:27:18;5.45;;;3.58;;
48574;SDS011;34352;51.084;3.712;2023-08-30T01:29:49;8.30;;;3.35;;
48574;SDS011;34352;51.084;3.712;2023-08-30T01:32:16;4.82;;;3.22;;
48574;SDS011;34352;51.084;3.712;2023-08-30T01:34:42;4.70;;;3.08;;
48574;SDS011;34352;51.084;3.712;2023-08-30T01:37:11;4.65;;;3.03;;
48574;SDS011;34352;51.084;3.712;2023-08-30T01:39:39;6.40;;;2.97;;
48574;SDS011;34352;51.084;3.712;2023-08-30T01:42:07;4.82;;;2.85;;
48574;SDS011;34352;51.084;3.712;2023-08-30T01:44:34;6.32;;;3.30;;
48574;SDS011;34352;51.084;3.712;2023-08-30T01:47:11;4.70;;;3.10;;
48574;SDS011;34352;51.084;3.712;2023-08-30T01:49:39;9.88;;;2.83;;
48574;SDS011;34352;51.084;3.712;2023-08-30T01:52:07;5.07;;;3.00;;
48574;SDS011;34352;51.084;3.712;2023-08-30T01:54:35;4.75;;;2.97;;
48574;SDS011;34352;51.084;3.712;2023-08-30T01:57:02;4.15;;;2.83;;
48574;SDS011;34352;51.084;3.712;2023-08-30T01:59:29;6.65;;;3.15;;
48574;SDS011;34352;51.084;3.712;2023-08-30T02:01:54;5.35;;;3.10;;
48574;SDS011;34352;51.084;3.712;2023-08-30T02:04:21;5.85;;;3.35;;
48574;SDS011;34352;51.084;3.712;2023-08-30T02:06:53;4.35;;;3.20;;
48574;SDS011;34352;51.084;3.712;2023-08-30T02:11:54;5.72;;;2.88;;
48574;SDS011;34352;51.084;3.712;2023-08-30T02:14:22;5.00;;;2.97;;
48574;SDS011;34352;51.084;3.712;2023-08-30T02:16:51;6.63;;;3.47;;
48574;SDS011;34352;51.084;3.712;2023-08-30T02:19:17;5.13;;;2.95;;
48574;SDS011;34352;51.084;3.712;2023-08-30T02:21:46;3.80;;;2.60;;
48574;SDS011;34352;51.084;3.712;2023-08-30T02:24:13;5.82;;;2.80;;
48574;SDS011;34352;51.084;3.712;2023-08-30T02:26:41;4.90;;;2.70;;
48574;SDS011;34352;51.084;3.712;2023-08-30T02:29:06;7.78;;;3.38;;
48574;SDS011;34352;51.084;3.712;2023-08-30T02:31:33;5.28;;;2.63;;
48574;SDS011;34352;51.084;3.712;2023-08-30T02:34:04;5.07;;;2.80;;
48574;SDS011;34352;51.084;3.712;2023-08-30T02:36:30;3.80;;;2.75;;
48574;SDS011;34352;51.084;3.712;2023-08-30T02:38:56;7.40;;;3.38;;
48574;SDS011;34352;51.084;3.712;2023-08-30T02:41:21;9.38;;;3.33;;
48574;SDS011;34352;51.084;3.712;2023-08-30T02:43:47;5.45;;;2.97;;
48574;SDS011;34352;51.084;3.712;2023-08-30T02:46:15;8.60;;;3.63;;
48574;SDS011;34352;51.084;3.712;2023-08-30T02:48:41;6.10;;;3.50;;
48574;SDS011;34352;51.084;3.712;2023-08-30T02:51:07;6.20;;;3.65;;
48574;SDS011;34352;51.084;3.712;2023-08-30T02:53:34;7.50;;;4.03;;
48574;SDS011;34352;51.084;3.712;2023-08-30T02:55:59;10.07;;;4.60;;
48574;SDS011;34352;51.084;3.712;2023-08-30T02:58:26;6.57;;;3.47;;
48574;SDS011;34352;51.084;3.712;2023-08-30T03:00:52;8.95;;;4.00;;
48574;SDS011;34352;51.084;3.712;2023-08-30T03:03:19;7.57;;;4.13;;
48574;SDS011;34352;51.084;3.712;2023-08-30T03:05:49;7.97;;;4.32;;
48574;SDS011;34352;51.084;3.712;2023-08-30T03:08:15;5.70;;;3.70;;
48574;SDS011;34352;51.084;3.712;2023-08-30T03:10:41;6.03;;;3.42;;
48574;SDS011;34352;51.084;3.712;2023-08-30T03:13:09;9.57;;;4.80;;
48574;SDS011;34352;51.084;3.712;2023-08-30T03:15:41;6.00;;;3.40;;
48574;SDS011;34352;51.084;3.712;2023-08-30T03:18:07;7.38;;;3.65;;
48574;SDS011;34352;51.084;3.712;2023-08-30T03:20:32;9.18;;;3.67;;
48574;SDS011;34352;51.084;3.712;2023-08-30T03:23:02;8.35;;;4.38;;
48574;SDS011;34352;51.084;3.712;2023-08-30T03:25:29;8.82;;;3.90;;
48574;SDS011;34352;51.084;3.712;2023-08-30T03:27:57;6.97;;;3.90;;
48574;SDS011;34352;51.084;3.712;2023-08-30T03:30:32;8.60;;;3.83;;
48574;SDS011;34352;51.084;3.712;2023-08-30T03:32:58;7.25;;;3.72;;
48574;SDS011;34352;51.084;3.712;2023-08-30T03:35:23;5.82;;;3.38;;
48574;SDS011;34352;51.084;3.712;2023-08-30T03:37:50;7.18;;;3.80;;
48574;SDS011;34352;51.084;3.712;2023-08-30T03:40:24;7.05;;;3.83;;
48574;SDS011;34352;51.084;3.712;2023-08-30T03:42:49;5.57;;;2.90;;
48574;SDS011;34352;51.084;3.712;2023-08-30T03:53:09;5.05;;;2.85;;
48574;SDS011;34352;51.084;3.712;2023-08-30T03:55:37;5.30;;;2.72;;
48574;SDS011;34352;51.084;3.712;2023-08-30T03:58:04;4.05;;;2.50;;
48574;SDS011;34352;51.084;3.712;2023-08-30T04:00:47;5.45;;;2.65;;
48574;SDS011;34352;51.084;3.712;2023-08-30T04:03:15;5.00;;;2.22;;
48574;SDS011;34352;51.084;3.712;2023-08-30T04:05:54;3.45;;;2.35;;
48574;SDS011;34352;51.084;3.712;2023-08-30T04:08:24;7.45;;;3.20;;
48574;SDS011;34352;51.084;3.712;2023-08-30T04:10:57;5.82;;;3.53;;
48574;SDS011;34352;51.084;3.712;2023-08-30T04:13:24;7.18;;;3.22;;
48574;SDS011;34352;51.084;3.712;2023-08-30T04:15:56;4.38;;;2.85;;
48574;SDS011;34352;51.084;3.712;2023-08-30T04:18:23;4.80;;;2.70;;
48574;SDS011;34352;51.084;3.712;2023-08-30T04:44:06;5.80;;;3.35;;
48574;SDS011;34352;51.084;3.712;2023-08-30T04:46:42;10.77;;;5.75;;
48574;SDS011;34352;51.084;3.712;2023-08-30T04:49:08;12.70;;;6.75;;
48574;SDS011;34352;51.084;3.712;2023-08-30T04:56:45;13.90;;;7.95;;
48574;SDS011;34352;51.084;3.712;2023-08-30T05:01:42;14.50;;;8.18;;
48574;SDS011;34352;51.084;3.712;2023-08-30T05:04:24;16.10;;;8.48;;
48574;SDS011;34352;51.084;3.712;2023-08-30T05:06:51;18.88;;;10.10;;
48574;SDS011;34352;51.084;3.712;2023-08-30T05:14:33;18.08;;;9.75;;
48574;SDS011;34352;51.084;3.712;2023-08-30T05:17:15;20.67;;;9.52;;
48574;SDS011;34352;51.084;3.712;2023-08-30T05:19:44;17.20;;;10.10;;
48574;SDS011;34352;51.084;3.712;2023-08-30T05:22:22;21.08;;;10.43;;
48574;SDS011;34352;51.084;3.712;2023-08-30T05:24:49;16.92;;;8.77;;
48574;SDS011;34352;51.084;3.712;2023-08-30T05:29:53;17.48;;;9.63;;
48574;SDS011;34352;51.084;3.712;2023-08-30T05:35:05;18.92;;;9.85;;
48574;SDS011;34352;51.084;3.712;2023-08-30T05:37:33;19.48;;;9.48;;
48574;SDS011;34352;51.084;3.712;2023-08-30T05:46:03;16.45;;;8.45;;
48574;SDS011;34352;51.084;3.712;2023-08-30T05:54:39;13.45;;;7.32;;
48574;SDS011;34352;51.084;3.712;2023-08-30T05:57:06;11.80;;;7.10;;
48574;SDS011;34352;51.084;3.712;2023-08-30T05:59:31;11.18;;;7.00;;
48574;SDS011;34352;51.084;3.712;2023-08-30T06:04:32;12.38;;;6.47;;
48574;SDS011;34352;51.084;3.712;2023-08-30T06:06:58;10.32;;;6.45;;
48574;SDS011;34352;51.084;3.712;2023-08-30T06:11:57;11.40;;;5.97;;
48574;SDS011;34352;51.084;3.712;2023-08-30T06:14:23;11.55;;;6.85;;
48574;SDS011;34352;51.084;3.712;2023-08-30T06:16:50;9.85;;;5.85;;
48574;SDS011;34352;51.084;3.712;2023-08-30T06:19:16;13.18;;;6.53;;
48574;SDS011;34352;51.084;3.712;2023-08-30T06:24:16;12.50;;;6.80;;
48574;SDS011;34352;51.084;3.712;2023-08-30T06:26:42;13.80;;;6.93;;
48574;SDS011;34352;51.084;3.712;2023-08-30T06:29:07;16.52;;;8.00;;
48574;SDS011;34352;51.084;3.712;2023-08-30T06:31:33;11.05;;;6.47;;
48574;SDS011;34352;51.084;3.712;2023-08-30T06:36:31;13.30;;;7.25;;
48574;SDS011;34352;51.084;3.712;2023-08-30T06:38:59;12.07;;;6.60;;
48574;SDS011;34352;51.084;3.712;2023-08-30T06:41:31;12.35;;;7.13;;
48574;SDS011;34352;51.084;3.712;2023-08-30T06:47:06;12.07;;;6.88;;
48574;SDS011;34352;51.084;3.712;2023-08-30T06:49:41;12.35;;;7.40;;
48574;SDS011;34352;51.084;3.712;2023-08-30T06:52:12;12.35;;;6.45;;
48574;SDS011;34352;51.084;3.712;2023-08-30T06:59:49;12.38;;;7.03;;
48574;SDS011;34352;51.084;3.712;2023-08-30T07:39:57;10.77;;;6.73;;
48574;SDS011;34352;51.084;3.712;2023-08-30T07:42:26;13.90;;;6.85;;
48574;SDS011;34352;51.084;3.712;2023-08-30T07:47:40;10.95;;;7.05;;
48574;SDS011;34352;51.084;3.712;2023-08-30T07:50:06;13.38;;;7.90;;
48574;SDS011;34352;51.084;3.712;2023-08-30T07:52:32;16.30;;;7.97;;
48574;SDS011;34352;51.084;3.712;2023-08-30T07:55:00;8.75;;;5.22;;
48574;SDS011;34352;51.084;3.712;2023-08-30T07:57:30;12.82;;;6.82;;
48574;SDS011;34352;51.084;3.712;2023-08-30T08:00:10;11.60;;;7.32;;
48574;SDS011;34352;51.084;3.712;2023-08-30T08:06:02;9.02;;;5.50;;
48574;SDS011;34352;51.084;3.712;2023-08-30T08:08:28;7.35;;;5.30;;
48574;SDS011;34352;51.084;3.712;2023-08-30T08:10:54;9.25;;;4.68;;
48574;SDS011;34352;51.084;3.712;2023-08-30T08:16:19;9.35;;;4.75;;
48574;SDS011;34352;51.084;3.712;2023-08-30T08:18:51;7.63;;;4.30;;
48574;SDS011;34352;51.084;3.712;2023-08-30T08:26:35;7.35;;;4.30;;
48574;SDS011;34352;51.084;3.712;2023-08-30T08:29:07;7.72;;;3.80;;
48574;SDS011;34352;51.084;3.712;2023-08-30T08:31:34;6.18;;;3.40;;
48574;SDS011;34352;51.084;3.712;2023-08-30T08:36:57;4.90;;;2.95;;
48574;SDS011;34352;51.084;3.712;2023-08-30T08:42:17;5.90;;;3.15;;
48574;SDS011;34352;51.084;3.712;2023-08-30T08:44:54;2.97;;;2.28;;
48574;SDS011;34352;51.084;3.712;2023-08-30T08:47:40;6.78;;;3.08;;
48574;SDS011;34352;51.084;3.712;2023-08-30T08:50:20;4.45;;;2.20;;
48574;SDS011;34352;51.084;3.712;2023-08-30T08:52:47;4.68;;;1.92;;
48574;SDS011;34352;51.084;3.712;2023-08-30T08:55:21;4.35;;;2.33;;
48574;SDS011;34352;51.084;3.712;2023-08-30T09:01:04;4.63;;;1.90;;
48574;SDS011;34352;51.084;3.712;2023-08-30T09:03:44;3.28;;;1.80;;
48574;SDS011;34352;51.084;3.712;2023-08-30T09:06:09;2.55;;;1.95;;
48574;SDS011;34352;51.084;3.712;2023-08-30T09:08:44;4.10;;;2.00;;
48574;SDS011;34352;51.084;3.712;2023-08-30T09:11:16;2.70;;;1.73;;
48574;SDS011;34352;51.084;3.712;2023-08-30T09:16:15;2.13;;;1.50;;
48574;SDS011;34352;51.084;3.712;2023-08-30T09:27:30;3.05;;;1.50;;
48574;SDS011;34352;51.084;3.712;2023-08-30T09:29:58;3.00;;;1.58;;
48574;SDS011;34352;51.084;3.712;2023-08-30T09:35:18;3.85;;;1.55;;
48574;SDS011;34352;51.084;3.712;2023-08-30T09:48:31;3.92;;;1.60;;
48574;SDS011;34352;51.084;3.712;2023-08-30T09:51:00;3.35;;;1.55;;
48574;SDS011;34352;51.084;3.712;2023-08-30T09:56:11;2.97;;;1.30;;
48574;SDS011;34352;51.084;3.712;2023-08-30T09:58:39;3.85;;;1.88;;
48574;SDS011;34352;51.084;3.712;2023-08-30T10:01:09;3.17;;;1.13;;
48574;SDS011;34352;51.084;3.712;2023-08-30T10:03:46;3.97;;;1.58;;
48574;SDS011;34352;51.084;3.712;2023-08-30T10:06:14;3.45;;;1.50;;
48574;SDS011;34352;51.084;3.712;2023-08-30T10:08:52;6.20;;;1.42;;
48574;SDS011;34352;51.084;3.712;2023-08-30T10:11:19;3.22;;;1.17;;
48574;SDS011;34352;51.084;3.712;2023-08-30T10:13:46;2.78;;;1.42;;
48574;SDS011;34352;51.084;3.712;2023-08-30T10:16:18;4.85;;;1.65;;
48574;SDS011;34352;51.084;3.712;2023-08-30T10:18:50;5.75;;;1.65;;
48574;SDS011;34352;51.084;3.712;2023-08-30T10:21:20;2.78;;;1.30;;
48574;SDS011;34352;51.084;3.712;2023-08-30T10:23:48;4.18;;;1.52;;
48574;SDS011;34352;51.084;3.712;2023-08-30T10:26:16;3.67;;;1.50;;
48574;SDS011;34352;51.084;3.712;2023-08-30T10:28:45;3.85;;;1.30;;
48574;SDS011;34352;51.084;3.712;2023-08-30T10:31:12;2.97;;;1.55;;
48574;SDS011;34352;51.084;3.712;2023-08-30T10:36:23;1.52;;;1.20;;
48574;SDS011;34352;51.084;3.712;2023-08-30T10:38:50;3.63;;;1.30;;
48574;SDS011;34352;51.084;3.712;2023-08-30T10:41:23;8.63;;;1.50;;
48574;SDS011;34352;51.084;3.712;2023-08-30T10:44:00;5.95;;;1.40;;
48574;SDS011;34352;51.084;3.712;2023-08-30T10:46:31;3.60;;;1.60;;
48574;SDS011;34352;51.084;3.712;2023-08-30T10:52:00;4.10;;;1.50;;
48574;SDS011;34352;51.084;3.712;2023-08-30T11:00:28;4.40;;;1.27;;
48574;SDS011;34352;51.084;3.712;2023-08-30T11:02:55;4.38;;;1.60;;
48574;SDS011;34352;51.084;3.712;2023-08-30T11:05:29;4.57;;;1.90;;
48574;SDS011;34352;51.084;3.712;2023-08-30T11:07:56;2.53;;;1.30;;
48574;SDS011;34352;51.084;3.712;2023-08-30T11:13:15;3.95;;;1.58;;
48574;SDS011;34352;51.084;3.712;2023-08-30T11:15:43;4.03;;;1.70;;
48574;SDS011;34352;51.084;3.712;2023-08-30T11:18:10;5.43;;;1.70;;
48574;SDS011;34352;51.084;3.712;2023-08-30T11:23:41;4.60;;;1.67;;
48574;SDS011;34352;51.084;3.712;2023-08-30T11:26:07;3.42;;;1.48;;
48574;SDS011;34352;51.084;3.712;2023-08-30T11:28:34;3.92;;;1.35;;
48574;SDS011;34352;51.084;3.712;2023-08-30T11:31:03;4.05;;;1.17;;
48574;SDS011;34352;51.084;3.712;2023-08-30T11:33:28;4.97;;;1.80;;
48574;SDS011;34352;51.084;3.712;2023-08-30T11:35:55;2.88;;;1.20;;
48574;SDS011;34352;51.084;3.712;2023-08-30T11:38:22;2.30;;;1.45;;
48574;SDS011;34352;51.084;3.712;2023-08-30T11:40:52;3.38;;;1.20;;
48574;SDS011;34352;51.084;3.712;2023-08-30T11:43:33;3.92;;;1.40;;
48574;SDS011;34352;51.084;3.712;2023-08-30T11:46:08;2.63;;;1.20;;
48574;SDS011;34352;51.084;3.712;2023-08-30T11:56:53;3.05;;;1.40;;
48574;SDS011;34352;51.084;3.712;2023-08-30T11:59:19;5.00;;;1.38;;
48574;SDS011;34352;51.084;3.712;2023-08-30T12:01:47;2.75;;;1.38;;
48574;SDS011;34352;51.084;3.712;2023-08-30T12:04:14;1.80;;;0.77;;
48574;SDS011;34352;51.084;3.712;2023-08-30T12:09:29;2.45;;;0.93;;
48574;SDS011;34352;51.084;3.712;2023-08-30T12:12:04;3.38;;;1.15;;
48574;SDS011;34352;51.084;3.712;2023-08-30T12:17:36;1.92;;;1.10;;
48574;SDS011;34352;51.084;3.712;2023-08-30T12:20:02;1.98;;;1.13;;
48574;SDS011;34352;51.084;3.712;2023-08-30T12:22:38;2.00;;;1.08;;
48574;SDS011;34352;51.084;3.712;2023-08-30T12:30:55;2.10;;;1.10;;
48574;SDS011;34352;51.084;3.712;2023-08-30T12:33:23;2.25;;;1.27;;
48574;SDS011;34352;51.084;3.712;2023-08-30T12:35:53;3.38;;;1.23;;
48574;SDS011;34352;51.084;3.712;2023-08-30T12:38:20;2.28;;;1.10;;
48574;SDS011;34352;51.084;3.712;2023-08-30T12:46:04;1.65;;;1.00;;
48574;SDS011;34352;51.084;3.712;2023-08-30T12:53:45;4.78;;;1.17;;
48574;SDS011;34352;51.084;3.712;2023-08-30T12:58:46;4.95;;;1.23;;
48574;SDS011;34352;51.084;3.712;2023-08-30T13:01:18;2.88;;;0.93;;
48574;SDS011;34352;51.084;3.712;2023-08-30T13:06:47;2.60;;;1.00;;
48574;SDS011;34352;51.084;3.712;2023-08-30T13:09:17;3.55;;;1.27;;
48574;SDS011;34352;51.084;3.712;2023-08-30T13:11:42;3.15;;;0.90;;
48574;SDS011;34352;51.084;3.712;2023-08-30T13:14:09;1.55;;;1.10;;
48574;SDS011;34352;51.084;3.712;2023-08-30T13:16:45;2.50;;;1.33;;
48574;SDS011;34352;51.084;3.712;2023-08-30T13:19:13;2.03;;;0.57;;
48574;SDS011;34352;51.084;3.712;2023-08-30T13:21:41;2.65;;;0.93;;
48574;SDS011;34352;51.084;3.712;2023-08-30T13:24:18;0.85;;;0.60;;
48574;SDS011;34352;51.084;3.712;2023-08-30T13:26:53;1.17;;;0.85;;
48574;SDS011;34352;51.084;3.712;2023-08-30T13:29:32;1.73;;;0.90;;
48574;SDS011;34352;51.084;3.712;2023-08-30T13:31:57;2.38;;;1.00;;
48574;SDS011;34352;51.084;3.712;2023-08-30T13:34:27;1.33;;;0.50;;
48574;SDS011;34352;51.084;3.712;2023-08-30T13:39:39;2.15;;;1.10;;
48574;SDS011;34352;51.084;3.712;2023-08-30T13:42:12;1.67;;;0.85;;
48574;SDS011;34352;51.084;3.712;2023-08-30T13:44:52;2.47;;;0.80;;
48574;SDS011;34352;51.084;3.712;2023-08-30T13:47:18;3.33;;;1.02;;
48574;SDS011;34352;51.084;3.712;2023-08-30T13:49:44;2.55;;;1.10;;
48574;SDS011;34352;51.084;3.712;2023-08-30T13:52:09;3.45;;;1.10;;
48574;SDS011;34352;51.084;3.712;2023-08-30T13:54:36;2.03;;;1.10;;
48574;SDS011;34352;51.084;3.712;2023-08-30T13:57:13;2.33;;;0.80;;
48574;SDS011;34352;51.084;3.712;2023-08-30T13:59:45;1.67;;;1.00;;
48574;SDS011;34352;51.084;3.712;2023-08-30T14:02:14;1.05;;;0.70;;
48574;SDS011;34352;51.084;3.712;2023-08-30T14:04:45;2.90;;;0.82;;
48574;SDS011;34352;51.084;3.712;2023-08-30T14:07:11;2.17;;;0.93;;
48574;SDS011;34352;51.084;3.712;2023-08-30T14:12:06;2.72;;;0.77;;
48574;SDS011;34352;51.084;3.712;2023-08-30T14:17:22;3.25;;;1.05;;
48574;SDS011;34352;51.084;3.712;2023-08-30T14:19:49;1.90;;;0.80;;
48574;SDS011;34352;51.084;3.712;2023-08-30T14:22:19;1.80;;;0.93;;
48574;SDS011;34352;51.084;3.712;2023-08-30T14:24:45;1.33;;;0.88;;
48574;SDS011;34352;51.084;3.712;2023-08-30T14:27:13;2.50;;;1.10;;
48574;SDS011;34352;51.084;3.712;2023-08-30T14:29:38;0.63;;;0.63;;
48574;SDS011;34352;51.084;3.712;2023-08-30T14:32:04;2.13;;;1.38;;
48574;SDS011;34352;51.084;3.712;2023-08-30T14:34:34;1.63;;;1.15;;
48574;SDS011;34352;51.084;3.712;2023-08-30T14:37:00;3.63;;;1.00;;
48574;SDS011;34352;51.084;3.712;2023-08-30T14:39:27;2.72;;;1.00;;
48574;SDS011;34352;51.084;3.712;2023-08-30T14:42:07;2.25;;;0.60;;
48574;SDS011;34352;51.084;3.712;2023-08-30T14:47:37;1.88;;;0.80;;
48574;SDS011;34352;51.084;3.712;2023-08-30T14:50:05;2.42;;;1.00;;
48574;SDS011;34352;51.084;3.712;2023-08-30T14:52:31;1.17;;;0.90;;
48574;SDS011;34352;51.084;3.712;2023-08-30T14:54:58;2.88;;;1.17;;
48574;SDS011;34352;51.084;3.712;2023-08-30T14:57:34;3.80;;;1.02;;
48574;SDS011;34352;51.084;3.712;2023-08-30T15:00:01;1.92;;;1.05;;
48574;SDS011;34352;51.084;3.712;2023-08-30T15:02:27;4.05;;;1.23;;
48574;SDS011;34352;51.084;3.712;2023-08-30T15:05:05;2.03;;;1.08;;
48574;SDS011;34352;51.084;3.712;2023-08-30T15:07:42;3.55;;;1.02;;
48574;SDS011;34352;51.084;3.712;2023-08-30T15:10:10;2.40;;;1.02;;
48574;SDS011;34352;51.084;3.712;2023-08-30T15:12:37;1.27;;;1.10;;
48574;SDS011;34352;51.084;3.712;2023-08-30T15:15:04;1.83;;;1.30;;
48574;SDS011;34352;51.084;3.712;2023-08-30T15:17:36;3.75;;;1.13;;
48574;SDS011;34352;51.084;3.712;2023-08-30T15:20:02;2.03;;;1.23;;
48574;SDS011;34352;51.084;3.712;2023-08-30T15:25:20;1.48;;;0.80;;
48574;SDS011;34352;51.084;3.712;2023-08-30T15:27:46;0.93;;;0.70;;
48574;SDS011;34352;51.084;3.712;2023-08-30T15:30:12;3.83;;;0.90;;
48574;SDS011;34352;51.084;3.712;2023-08-30T15:32:39;3.25;;;1.10;;
48574;SDS011;34352;51.084;3.712;2023-08-30T15:35:06;1.00;;;0.70;;
48574;SDS011;34352;51.084;3.712;2023-08-30T15:37:34;3.45;;;1.33;;
48574;SDS011;34352;51.084;3.712;2023-08-30T15:40:02;3.17;;;0.88;;
48574;SDS011;34352;51.084;3.712;2023-08-30T15:42:35;1.85;;;1.05;;
48574;SDS011;34352;51.084;3.712;2023-08-30T15:45:01;3.38;;;1.00;;
48574;SDS011;34352;51.084;3.712;2023-08-30T15:47:29;1.98;;;0.88;;
48574;SDS011;34352;51.084;3.712;2023-08-30T15:49:56;1.17;;;1.08;;
48574;SDS011;34352;51.084;3.712;2023-08-30T15:52:21;2.97;;;1.00;;
48574;SDS011;34352;51.084;3.712;2023-08-30T15:54:48;0.93;;;0.80;;
48574;SDS011;34352;51.084;3.712;2023-08-30T15:57:14;1.15;;;0.80;;
48574;SDS011;34352;51.084;3.712;2023-08-30T15:59:43;2.45;;;1.00;;
48574;SDS011;34352;51.084;3.712;2023-08-30T16:02:17;2.28;;;1.10;;
48574;SDS011;34352;51.084;3.712;2023-08-30T16:04:43;1.33;;;1.00;;
48574;SDS011;34352;51.084;3.712;2023-08-30T16:09:40;1.08;;;0.88;;
48574;SDS011;34352;51.084;3.712;2023-08-30T16:12:08;2.25;;;0.98;;
48574;SDS011;34352;51.084;3.712;2023-08-30T16:17:24;1.60;;;1.08;;
48574;SDS011;34352;51.084;3.712;2023-08-30T16:22:39;3.97;;;1.30;;
48574;SDS011;34352;51.084;3.712;2023-08-30T16:31:19;3.05;;;1.00;;
48574;SDS011;34352;51.084;3.712;2023-08-30T16:33:52;1.83;;;1.10;;
48574;SDS011;34352;51.084;3.712;2023-08-30T16:39:11;1.92;;;1.25;;
48574;SDS011;34352;51.084;3.712;2023-08-30T16:44:33;3.45;;;1.88;;
48574;SDS011;34352;51.084;3.712;2023-08-30T16:47:00;6.35;;;1.35;;
48574;SDS011;34352;51.084;3.712;2023-08-30T16:49:27;2.63;;;1.25;;
48574;SDS011;34352;51.084;3.712;2023-08-30T16:52:03;3.38;;;1.45;;
48574;SDS011;34352;51.084;3.712;2023-08-30T16:59:45;2.35;;;1.10;;
48574;SDS011;34352;51.084;3.712;2023-08-30T17:02:11;2.45;;;1.90;;
48574;SDS011;34352;51.084;3.712;2023-08-30T17:04:41;2.95;;;1.70;;
48574;SDS011;34352;51.084;3.712;2023-08-30T17:07:10;5.60;;;1.40;;
48574;SDS011;34352;51.084;3.712;2023-08-30T17:15:22;1.17;;;0.85;;
48574;SDS011;34352;51.084;3.712;2023-08-30T17:20:44;2.25;;;1.30;;
48574;SDS011;34352;51.084;3.712;2023-08-30T17:26:24;1.35;;;1.20;;
48574;SDS011;34352;51.084;3.712;2023-08-30T17:31:19;1.95;;;1.30;;
48574;SDS011;34352;51.084;3.712;2023-08-30T17:36:58;3.28;;;1.30;;
48574;SDS011;34352;51.084;3.712;2023-08-30T17:39:26;3.08;;;1.42;;
48574;SDS011;34352;51.084;3.712;2023-08-30T17:41:53;2.88;;;1.50;;
48574;SDS011;34352;51.084;3.712;2023-08-30T17:44:19;5.60;;;1.48;;
48574;SDS011;34352;51.084;3.712;2023-08-30T17:49:41;1.10;;;1.00;;
48574;SDS011;34352;51.084;3.712;2023-08-30T17:52:07;2.80;;;1.73;;
48574;SDS011;34352;51.084;3.712;2023-08-30T17:54:33;4.00;;;1.23;;
48574;SDS011;34352;51.084;3.712;2023-08-30T17:57:01;3.35;;;1.42;;
48574;SDS011;34352;51.084;3.712;2023-08-30T17:59:32;3.72;;;1.70;;
48574;SDS011;34352;51.084;3.712;2023-08-30T18:02:01;1.98;;;1.35;;
48574;SDS011;34352;51.084;3.712;2023-08-30T18:07:23;1.73;;;1.40;;
48574;SDS011;34352;51.084;3.712;2023-08-30T18:09:49;4.70;;;1.70;;
48574;SDS011;34352;51.084;3.712;2023-08-30T18:12:31;3.47;;;1.50;;
48574;SDS011;34352;51.084;3.712;2023-08-30T18:18:30;2.95;;;1.77;;
48574;SDS011;34352;51.084;3.712;2023-08-30T18:20:56;3.85;;;1.80;;
48574;SDS011;34352;51.084;3.712;2023-08-30T18:23:24;4.22;;;1.77;;
48574;SDS011;34352;51.084;3.712;2023-08-30T18:25:50;4.75;;;2.63;;
48574;SDS011;34352;51.084;3.712;2023-08-30T18:28:17;5.43;;;1.95;;
48574;SDS011;34352;51.084;3.712;2023-08-30T18:30:45;5.10;;;1.90;;
48574;SDS011;34352;51.084;3.712;2023-08-30T18:33:11;3.85;;;1.80;;
48574;SDS011;34352;51.084;3.712;2023-08-30T18:35:46;4.72;;;1.60;;
48574;SDS011;34352;51.084;3.712;2023-08-30T18:38:19;3.17;;;1.20;;
48574;SDS011;34352;51.084;3.712;2023-08-30T18:40:44;1.45;;;0.80;;
48574;SDS011;34352;51.084;3.712;2023-08-30T18:43:10;4.60;;;1.42;;
48574;SDS011;34352;51.084;3.712;2023-08-30T18:45:54;1.48;;;1.08;;
48574;SDS011;34352;51.084;3.712;2023-08-30T18:48:20;4.07;;;0.63;;
48574;SDS011;34352;51.084;3.712;2023-08-30T18:50:46;0.75;;;0.68;;
48574;SDS011;34352;51.084;3.712;2023-08-30T18:53:29;1.05;;;0.60;;
48574;SDS011;34352;51.084;3.712;2023-08-30T18:55:59;0.40;;;0.40;;
48574;SDS011;34352;51.084;3.712;2023-08-30T18:58:27;0.73;;;0.70;;
48574;SDS011;34352;51.084;3.712;2023-08-30T19:16:51;0.60;;;0.60;;
48574;SDS011;34352;51.084;3.712;2023-08-30T19:19:29;3.75;;;1.50;;
48574;SDS011;34352;51.084;3.712;2023-08-30T19:22:02;2.28;;;1.00;;
48574;SDS011;34352;51.084;3.712;2023-08-30T19:24:29;2.22;;;0.73;;
48574;SDS011;34352;51.084;3.712;2023-08-30T19:27:05;5.28;;;1.55;;
48574;SDS011;34352;51.084;3.712;2023-08-30T19:29:31;1.80;;;0.77;;
48574;SDS011;34352;51.084;3.712;2023-08-30T19:32:02;1.05;;;0.68;;
48574;SDS011;34352;51.084;3.712;2023-08-30T19:34:33;0.75;;;0.75;;
48574;SDS011;34352;51.084;3.712;2023-08-30T19:39:56;0.65;;;0.65;;
48574;SDS011;34352;51.084;3.712;2023-08-30T19:42:23;1.40;;;0.90;;
48574;SDS011;34352;51.084;3.712;2023-08-30T19:44:57;0.95;;;0.93;;
48574;SDS011;34352;51.084;3.712;2023-08-30T19:49:58;2.28;;;1.10;;
48574;SDS011;34352;51.084;3.712;2023-08-30T19:55:47;1.63;;;0.90;;
48574;SDS011;34352;51.084;3.712;2023-08-30T20:01:26;1.45;;;1.10;;
48574;SDS011;34352;51.084;3.712;2023-08-30T21:25:16;1.10;;;1.00;;
48574;SDS011;34352;51.084;3.712;2023-08-30T21:43:12;2.83;;;1.40;;
48574;SDS011;34352;51.084;3.712;2023-08-30T21:52:35;1.40;;;1.27;;
48574;SDS011;34352;51.084;3.712;2023-08-30T21:58:20;1.80;;;1.17;;
48574;SDS011;34352;51.084;3.712;2023-08-30T22:03:42;1.77;;;1.20;;
48574;SDS011;34352;51.084;3.712;2023-08-30T22:41:36;2.35;;;1.95;;
48574;SDS011;34352;51.084;3.712;2023-08-30T22:44:08;2.83;;;1.85;;
48574;SDS011;34352;51.084;3.712;2023-08-30T22:54:51;3.90;;;2.10;;
48574;SDS011;34352;51.084;3.712;2023-08-30T22:57:19;2.53;;;1.80;;
48574;SDS011;34352;51.084;3.712;2023-08-30T23:34:10;3.38;;;2.47;;